Time;durP1;ratioP1;P1;durP2;ratioP2;P2;SDS_P1;SDS_P2;PMS_P1;PMS_P2;Temp;Humidity;BMP_temperature;BMP_pressure;BME280_temperature;BME280_humidity;BME280_pressure;Samples;Min_cycle;Max_cycle;Signal;HPM_P1;HPM_P2
2024/02/08 00:01:10;;;;;;;12.63;6.53;;;;;;;0.80;100.00;99894.41;5010169;28;20204;-76
2024/02/08 00:03:37;;;;;;;14.27;6.10;;;;;;;0.75;100.00;99884.88;5008927;28;20209;-77
2024/02/08 00:06:03;;;;;;;14.40;7.37;;;;;;;0.71;100.00;99894.25;5011845;28;20212;-76
2024/02/08 00:08:31;;;;;;;16.27;7.33;;;;;;;0.65;100.00;99884.97;5016415;28;20203;-76
2024/02/08 00:10:57;;;;;;;11.17;5.97;;;;;;;0.59;100.00;99882.72;5015771;28;20564;-76
2024/02/08 00:13:24;;;;;;;13.37;6.93;;;;;;;0.59;100.00;99890.50;5013522;28;20211;-76
2024/02/08 00:15:50;;;;;;;15.63;7.13;;;;;;;0.57;100.00;99895.97;5009275;28;20207;-76
2024/02/08 00:18:18;;;;;;;11.50;6.27;;;;;;;0.55;100.00;99892.09;5010334;28;20220;-76
2024/02/08 00:20:44;;;;;;;12.40;6.23;;;;;;;0.54;100.00;99887.94;5009630;28;20240;-76
2024/02/08 00:23:12;;;;;;;12.17;6.60;;;;;;;0.52;100.00;99890.06;5011078;28;20193;-75
2024/02/08 00:25:40;;;;;;;14.70;6.33;;;;;;;0.49;100.00;99885.41;5008875;28;20221;-76
2024/02/08 00:28:11;;;;;;;12.43;6.40;;;;;;;0.44;100.00;99881.06;5011469;28;20608;-75
2024/02/08 00:30:38;;;;;;;13.47;6.83;;;;;;;0.40;100.00;99880.03;5008900;28;20254;-75
2024/02/08 00:33:07;;;;;;;16.80;7.43;;;;;;;0.38;100.00;99887.31;5008717;28;20196;-76
2024/02/08 00:35:34;;;;;;;10.43;6.00;;;;;;;0.35;100.00;99882.69;5011927;28;20197;-76
2024/02/08 00:38:01;;;;;;;14.00;7.33;;;;;;;0.34;100.00;99890.75;5014622;28;20283;-76
2024/02/08 00:40:27;;;;;;;15.07;7.13;;;;;;;0.31;100.00;99891.28;5025896;28;20205;-76
2024/02/08 00:42:55;;;;;;;14.37;7.27;;;;;;;0.30;100.00;99892.34;5016436;28;20211;-76
2024/02/08 00:45:22;;;;;;;16.53;7.80;;;;;;;0.28;100.00;99890.03;5006497;28;20577;-76
2024/02/08 00:47:50;;;;;;;14.17;7.27;;;;;;;0.26;100.00;99886.94;5013020;28;20586;-75
2024/02/08 00:50:17;;;;;;;14.10;7.17;;;;;;;0.23;100.00;99892.69;5021414;28;20227;-76
2024/02/08 00:52:43;;;;;;;17.63;7.43;;;;;;;0.20;100.00;99884.66;5013200;28;20197;-76
2024/02/08 00:55:10;;;;;;;13.97;6.60;;;;;;;0.17;100.00;99880.78;5013236;28;20197;-75
2024/02/08 00:57:38;;;;;;;17.70;7.87;;;;;;;0.15;100.00;99877.69;5014463;28;20278;-76
2024/02/08 01:00:08;;;;;;;15.57;7.03;;;;;;;0.14;100.00;99883.16;5011216;28;20259;-76
2024/02/08 01:02:34;;;;;;;14.70;7.80;;;;;;;0.12;100.00;99877.47;5012572;28;20196;-76
2024/02/08 01:05:01;;;;;;;21.60;9.20;;;;;;;0.10;100.00;99877.75;5031059;28;20239;-75
2024/02/08 01:07:31;;;;;;;16.67;8.17;;;;;;;0.11;100.00;99886.31;5014710;28;20236;-76
2024/02/08 01:09:58;;;;;;;17.83;8.17;;;;;;;0.10;100.00;99882.94;5011614;28;20200;-76
2024/02/08 01:12:24;;;;;;;20.00;7.70;;;;;;;0.11;100.00;99874.09;5013197;28;20188;-76
2024/02/08 01:14:51;;;;;;;14.20;6.90;;;;;;;0.11;100.00;99870.75;5005717;28;20575;-75
2024/02/08 01:17:19;;;;;;;16.50;8.30;;;;;;;0.11;100.00;99878.53;5014222;28;20565;-75
2024/02/08 01:19:46;;;;;;;17.90;7.77;;;;;;;0.10;100.00;99882.16;5013960;28;20212;-75
2024/02/08 01:22:19;;;;;;;14.67;7.13;;;;;;;0.09;100.00;99883.19;5014455;28;20209;-75
2024/02/08 01:24:48;;;;;;;18.67;7.67;;;;;;;0.08;100.00;99872.06;5015917;28;20628;-76
2024/02/08 01:27:14;;;;;;;17.83;7.67;;;;;;;0.10;100.00;99874.34;5019909;28;20307;-75
2024/02/08 01:29:41;;;;;;;16.90;7.70;;;;;;;0.06;100.00;99866.34;5011611;28;20204;-76
2024/02/08 01:32:07;;;;;;;20.43;8.57;;;;;;;0.08;100.00;99863.50;5013327;28;20679;-76
2024/02/08 01:34:35;;;;;;;18.30;8.17;;;;;;;0.07;100.00;99867.13;5010302;28;20199;-75
2024/02/08 01:37:03;;;;;;;15.27;7.20;;;;;;;0.05;100.00;99872.59;5013855;28;20217;-76
2024/02/08 01:39:30;;;;;;;19.00;7.67;;;;;;;0.03;100.00;99868.72;5010575;28;20193;-76
2024/02/08 01:41:58;;;;;;;16.87;8.33;;;;;;;0.02;100.00;99864.59;5009787;28;20204;-76
2024/02/08 01:44:24;;;;;;;19.80;9.00;;;;;;;0.00;100.00;99858.91;5010918;28;20196;-76
2024/02/08 01:46:51;;;;;;;22.23;9.93;;;;;;;-0.07;100.00;99861.03;5007267;28;20228;-75
2024/02/08 01:49:22;;;;;;;21.80;10.07;;;;;;;-0.08;100.00;99856.88;5008504;28;20200;-76
2024/02/08 01:51:59;;;;;;;23.47;9.97;;;;;;;-0.06;100.00;99859.97;5010501;28;20209;-76
2024/02/08 01:54:26;;;;;;;20.10;8.53;;;;;;;-0.06;100.00;99858.16;5010461;28;20196;-75
2024/02/08 01:56:53;;;;;;;20.00;7.77;;;;;;;-0.05;100.00;99859.72;5013762;28;20220;-75
2024/02/08 01:59:20;;;;;;;18.37;8.80;;;;;;;-0.02;100.00;99855.78;5008892;28;20236;-76
2024/02/08 02:01:50;;;;;;;16.30;7.50;;;;;;;-0.03;100.00;99854.25;5009912;28;20209;-76
2024/02/08 02:04:17;;;;;;;17.93;8.40;;;;;;;-0.01;100.00;99850.34;5011281;28;20255;-76
2024/02/08 02:06:43;;;;;;;16.77;7.83;;;;;;;0.00;100.00;99851.88;5007026;28;20235;-75
2024/02/08 02:09:12;;;;;;;15.80;8.87;;;;;;;0.02;100.00;99843.81;5009029;28;20192;-75
2024/02/08 02:11:44;;;;;;;16.57;7.60;;;;;;;0.03;100.00;99837.59;5009677;28;20202;-75
2024/02/08 02:14:10;;;;;;;18.17;8.00;;;;;;;0.03;100.00;99837.59;5005031;28;20220;-76
2024/02/08 02:16:37;;;;;;;18.47;7.90;;;;;;;0.03;100.00;99837.59;5008980;28;20684;-76
2024/02/08 02:19:04;;;;;;;13.77;7.40;;;;;;;0.05;100.00;99840.66;5012591;28;20664;-76
2024/02/08 02:21:34;;;;;;;15.23;7.90;;;;;;;0.09;100.00;99842.47;5007257;28;20266;-76
2024/02/08 02:24:00;;;;;;;18.90;7.87;;;;;;;0.10;100.00;99835.44;5006886;28;20195;-75
2024/02/08 02:29:53;;;;;;;18.97;8.07;;;;;;;0.15;100.00;99833.56;5008468;28;20189;-75
2024/02/08 02:32:21;;;;;;;19.13;7.83;;;;;;;0.17;100.00;99828.09;5010196;28;20209;-76
2024/02/08 02:34:50;;;;;;;19.70;8.37;;;;;;;0.20;100.00;99827.53;5040592;28;20208;-76
2024/02/08 02:37:19;;;;;;;17.13;8.17;;;;;;;0.22;100.00;99822.88;5012149;28;20213;-76
2024/02/08 02:39:45;;;;;;;18.07;7.83;;;;;;;0.22;100.00;99835.84;5011192;28;20590;-76
2024/02/08 02:42:12;;;;;;;23.77;8.17;;;;;;;0.23;100.00;99830.38;5025487;28;20299;-76
2024/02/08 02:44:38;;;;;;;18.03;8.70;;;;;;;0.23;100.00;99827.00;5006002;28;20203;-75
2024/02/08 02:47:05;;;;;;;14.27;7.07;;;;;;;0.23;100.00;99829.59;5011584;28;20220;-75
2024/02/08 02:49:36;;;;;;;16.63;8.00;;;;;;;0.23;100.00;99827.00;5014924;28;20211;-76
2024/02/08 02:52:07;;;;;;;21.77;8.57;;;;;;;0.24;100.00;99825.94;5032938;28;20287;-75
2024/02/08 02:54:35;;;;;;;21.67;8.43;;;;;;;0.26;100.00;99829.06;5029770;28;20300;-76
2024/02/08 02:57:03;;;;;;;19.60;8.37;;;;;;;0.28;100.00;99824.34;5018942;28;20224;-76
2024/02/08 02:59:30;;;;;;;20.10;8.53;;;;;;;0.28;100.00;99822.53;5020360;28;20275;-75
2024/02/08 03:01:57;;;;;;;20.37;8.53;;;;;;;0.27;100.00;99820.22;5030064;28;20667;-74
2024/02/08 03:04:23;;;;;;;19.53;8.40;;;;;;;0.27;100.00;99815.78;5017569;28;20192;-76
2024/02/08 03:06:53;;;;;;;16.90;8.23;;;;;;;0.26;100.00;99823.88;5018887;28;20224;-76
2024/02/08 03:09:23;;;;;;;18.23;7.80;;;;;;;0.26;100.00;99819.44;5020137;28;20227;-76
2024/02/08 03:11:51;;;;;;;19.50;8.83;;;;;;;0.26;100.00;99814.25;5017618;28;20211;-76
2024/02/08 03:14:19;;;;;;;17.77;7.77;;;;;;;0.27;100.00;99817.63;5016835;28;20196;-76
2024/02/08 03:16:46;;;;;;;16.10;8.03;;;;;;;0.25;100.00;99811.91;5030960;28;20212;-76
2024/02/08 03:19:12;;;;;;;16.17;7.43;;;;;;;0.23;100.00;99811.44;5011874;28;20184;-76
2024/02/08 03:21:40;;;;;;;18.30;8.27;;;;;;;0.21;100.00;99809.09;5012826;28;20211;-76
2024/02/08 03:24:08;;;;;;;18.57;8.57;;;;;;;0.19;100.00;99810.41;5016290;28;20751;-76
2024/02/08 03:26:40;;;;;;;21.37;8.00;;;;;;;0.18;100.00;99804.47;5013122;28;20220;-75
2024/02/08 03:29:11;;;;;;;17.30;8.27;;;;;;;0.19;100.00;99805.22;5015161;28;20277;-75
2024/02/08 03:31:44;;;;;;;18.40;8.07;;;;;;;0.19;100.00;99807.81;5017356;28;20287;-76
2024/02/08 03:34:16;;;;;;;20.63;8.93;;;;;;;0.17;100.00;99808.09;5016251;28;20201;-75
2024/02/08 03:36:42;;;;;;;16.77;8.17;;;;;;;0.16;100.00;99803.19;5013725;28;20248;-76
2024/02/08 03:39:13;;;;;;;15.90;7.67;;;;;;;0.14;100.00;99806.06;5014907;28;20219;-76
2024/02/08 03:41:40;;;;;;;18.00;7.97;;;;;;;0.13;100.00;99804.53;5016141;28;20192;-76
2024/02/08 03:44:12;;;;;;;17.73;8.40;;;;;;;0.14;100.00;99802.69;5014582;28;20208;-76
2024/02/08 03:46:38;;;;;;;16.20;7.60;;;;;;;0.14;100.00;99797.50;5017030;28;20234;-76
2024/02/08 03:49:08;;;;;;;20.33;9.20;;;;;;;0.14;100.00;99800.88;5012060;28;20199;-76
2024/02/08 03:51:37;;;;;;;19.60;8.00;;;;;;;0.13;100.00;99793.38;5017442;28;20211;-76
2024/02/08 03:54:03;;;;;;;19.73;8.57;;;;;;;0.12;100.00;99800.34;5015519;28;20201;-76
2024/02/08 03:56:36;;;;;;;24.77;10.67;;;;;;;0.11;100.00;99800.66;5016152;28;20215;-74
2024/02/08 03:59:07;;;;;;;21.63;8.77;;;;;;;0.08;100.00;99796.78;5009480;28;20203;-76
2024/02/08 04:01:36;;;;;;;20.20;9.07;;;;;;;0.09;100.00;99792.34;5027049;28;20695;-76
2024/02/08 04:04:12;;;;;;;20.43;9.37;;;;;;;0.08;100.00;99799.38;5013032;28;20247;-76
2024/02/08 04:06:49;;;;;;;21.10;9.20;;;;;;;0.12;100.00;99800.34;5014854;28;20297;-75
2024/02/08 04:09:33;;;;;;;24.23;10.30;;;;;;;0.13;100.00;99804.53;5011653;28;20201;-75
2024/02/08 04:55:49;;;;;;;20.10;8.40;;;;;;;0.45;100.00;99817.66;5010354;28;20193;-76
2024/02/08 04:58:17;;;;;;;18.63;9.57;;;;;;;0.47;100.00;99817.41;5010611;28;20221;-76
2024/02/08 05:00:45;;;;;;;19.53;8.90;;;;;;;0.47;100.00;99820.00;5011343;28;20292;-76
2024/02/08 05:03:11;;;;;;;23.80;10.17;;;;;;;0.45;100.00;99820.28;5009557;28;20197;-77
2024/02/08 05:05:43;;;;;;;21.43;9.30;;;;;;;0.44;100.00;99820.53;5011891;28;20228;-76
2024/02/08 05:08:10;;;;;;;20.33;9.47;;;;;;;0.43;100.00;99819.75;5010841;28;20592;-76
2024/02/08 05:10:36;;;;;;;18.40;8.70;;;;;;;0.45;100.00;99815.06;5010932;28;20271;-75
2024/02/08 05:13:04;;;;;;;21.27;9.27;;;;;;;0.48;100.00;99805.97;5010903;28;20623;-76
2024/02/08 05:15:31;;;;;;;21.87;9.17;;;;;;;0.48;100.00;99811.91;5011083;28;20201;-76
2024/02/08 05:17:57;;;;;;;20.13;9.03;;;;;;;0.50;100.00;99815.00;5008832;28;20765;-76
2024/02/08 05:20:25;;;;;;;21.07;9.50;;;;;;;0.52;100.00;99804.34;5010576;28;20197;-76
2024/02/08 05:22:53;;;;;;;16.70;8.27;;;;;;;0.51;100.00;99795.78;5011386;28;20704;-76
2024/02/08 05:25:21;;;;;;;21.30;9.80;;;;;;;0.53;100.00;99798.84;5029164;28;20711;-76
2024/02/08 05:27:47;;;;;;;21.33;8.97;;;;;;;0.54;100.00;99795.25;5008944;28;20722;-76
2024/02/08 05:30:15;;;;;;;19.43;9.47;;;;;;;0.56;100.00;99797.53;5010427;28;20211;-77
2024/02/08 05:32:43;;;;;;;20.57;9.57;;;;;;;0.58;100.00;99798.03;5037560;28;20209;-76
2024/02/08 05:35:13;;;;;;;25.23;9.50;;;;;;;0.60;100.00;99793.34;5016491;28;20200;-76
2024/02/08 05:37:39;;;;;;;20.60;8.47;;;;;;;0.60;100.00;99788.13;5009423;28;20714;-75
2024/02/08 05:40:14;;;;;;;21.13;9.83;;;;;;;0.60;100.00;99795.94;5015399;28;20208;-76
2024/02/08 05:42:43;;;;;;;23.17;9.47;;;;;;;0.62;100.00;99799.00;5004332;28;20215;-75
2024/02/08 05:45:18;;;;;;;20.23;10.03;;;;;;;0.62;100.00;99796.41;5007593;28;20745;-76
2024/02/08 05:47:45;;;;;;;24.63;9.13;;;;;;;0.64;100.00;99808.06;5029418;28;20251;-76
2024/02/08 05:50:21;;;;;;;21.60;9.33;;;;;;;0.62;100.00;99802.41;5013579;28;20204;-77
2024/02/08 05:52:47;;;;;;;20.77;10.50;;;;;;;0.63;100.00;99796.13;5006712;28;20204;-76
2024/02/08 05:55:19;;;;;;;26.37;9.80;;;;;;;0.63;100.00;99790.94;5009331;28;20203;-77
2024/02/08 05:57:45;;;;;;;22.57;10.07;;;;;;;0.65;100.00;99785.47;5023778;28;20208;-77
2024/02/08 06:00:14;;;;;;;23.53;9.67;;;;;;;0.66;100.00;99782.59;5025218;28;20215;-76
2024/02/08 06:02:41;;;;;;;23.03;9.77;;;;;;;0.66;100.00;99781.81;5010482;28;20599;-76
2024/02/08 06:05:09;;;;;;;19.40;9.10;;;;;;;0.66;100.00;99781.81;5024617;28;20205;-76
2024/02/08 06:07:36;;;;;;;20.63;9.53;;;;;;;0.64;100.00;99784.69;5010055;28;20232;-76
2024/02/08 06:10:13;;;;;;;32.13;11.37;;;;;;;0.65;100.00;99790.66;5010415;28;20656;-75
2024/02/08 06:12:43;;;;;;;23.53;10.77;;;;;;;0.66;100.00;99782.59;5005994;28;20209;-76
2024/02/08 06:15:21;;;;;;;24.63;11.67;;;;;;;0.66;100.00;99779.22;5007252;28;20207;-76
2024/02/08 06:17:51;;;;;;;25.30;10.60;;;;;;;0.69;100.00;99770.88;5009054;28;20638;-75
2024/02/08 06:20:17;;;;;;;23.43;10.10;;;;;;;0.69;100.00;99773.47;5005617;28;20201;-76
2024/02/08 06:22:44;;;;;;;26.70;10.20;;;;;;;0.68;100.00;99758.94;5009391;28;20328;-76
2024/02/08 06:25:27;;;;;;;21.97;10.00;;;;;;;0.70;100.00;99762.03;5011870;28;20208;-76
2024/02/08 06:27:56;;;;;;;23.23;9.57;;;;;;;0.68;100.00;99764.91;5009396;28;20225;-76
2024/02/08 06:30:25;;;;;;;24.70;9.40;;;;;;;0.68;100.00;99757.09;5007793;28;20192;-75
2024/02/08 06:33:07;;;;;;;25.63;11.27;;;;;;;0.68;100.00;99762.31;5023373;28;20295;-76
2024/02/08 06:35:36;;;;;;;26.93;12.13;;;;;;;0.71;100.00;99766.16;5011742;28;20232;-76
2024/02/08 06:38:03;;;;;;;32.33;13.90;;;;;;;0.73;100.00;99770.03;5024478;28;20263;-76
2024/02/08 06:40:37;;;;;;;28.33;12.33;;;;;;;0.76;100.00;99758.31;5009128;28;20276;-76
2024/02/08 06:43:39;;;;;;;24.30;12.03;;;;;;;0.77;100.00;99758.03;5007376;28;20208;-76
2024/02/08 06:46:17;;;;;;;26.77;12.17;;;;;;;0.79;100.00;99760.34;5004337;28;20199;-75
2024/02/08 07:37:14;;;;;;;25.47;10.97;;;;;;;0.80;100.00;99751.50;5022090;28;20687;-75
2024/02/08 07:38:08;;;;;;;27.90;12.00;;;;;;;1.06;100.00;99794.28;5007206;28;20209;-76
2024/02/08 07:40:37;;;;;;;33.93;14.60;;;;;;;1.08;100.00;99787.75;5014150;28;20196;-75
2024/02/08 07:43:34;;;;;;;31.00;13.63;;;;;;;1.09;100.00;99793.72;5009491;28;20212;-76
2024/02/08 07:46:04;;;;;;;26.20;10.60;;;;;;;1.14;100.00;99804.06;5014663;28;20268;-76
2024/02/08 07:48:38;;;;;;;21.63;11.03;;;;;;;1.18;100.00;99810.22;5007749;28;20227;-76
2024/02/08 07:51:06;;;;;;;29.63;12.37;;;;;;;1.20;100.00;99808.13;5024264;28;20196;-76
2024/02/08 07:53:45;;;;;;;25.47;11.17;;;;;;;1.22;100.00;99788.59;5010721;28;20577;-75
2024/02/08 07:56:36;;;;;;;30.67;11.50;;;;;;;1.27;100.00;99782.53;5003705;28;20732;-76
2024/02/08 07:59:04;;;;;;;29.20;12.93;;;;;;;1.29;100.00;99783.78;5004370;28;20203;-76
2024/02/08 08:01:32;;;;;;;30.70;13.13;;;;;;;1.32;100.00;99788.44;5012778;28;20201;-75
2024/02/08 08:04:00;;;;;;;31.23;12.33;;;;;;;1.36;100.00;99791.97;5015554;28;20209;-75
2024/02/08 08:06:34;;;;;;;29.70;12.93;;;;;;;1.42;100.00;99779.69;5018331;28;20220;-76
2024/02/08 08:09:18;;;;;;;28.90;12.57;;;;;;;1.47;100.00;99787.41;5014940;28;20200;-76
2024/02/08 08:11:45;;;;;;;34.73;13.40;;;;;;;1.52;100.00;99787.34;5009050;28;20227;-75
2024/02/08 08:14:36;;;;;;;32.63;13.80;;;;;;;1.59;100.00;99795.53;5011119;28;20223;-76
2024/02/08 08:17:16;;;;;;;30.47;12.90;;;;;;;1.64;100.00;99791.03;5013436;28;20224;-76
2024/02/08 08:19:45;;;;;;;24.73;10.23;;;;;;;1.72;100.00;99802.63;5009394;28;20251;-76
2024/02/08 08:22:18;;;;;;;26.93;10.53;;;;;;;1.77;100.00;99805.88;5012811;28;20201;-75
2024/02/08 08:25:00;;;;;;;24.07;10.70;;;;;;;1.86;100.00;99798.19;5009912;28;20251;-76
2024/02/08 08:27:26;;;;;;;24.23;11.53;;;;;;;1.95;100.00;99793.88;5009762;28;20216;-74
2024/02/08 08:29:58;;;;;;;28.83;13.37;;;;;;;2.01;100.00;99787.50;5021101;28;20197;-76
2024/02/08 08:48:46;;;;;;;30.17;13.07;;;;;;;2.44;100.00;99776.53;6104744;22;1403929;-76
2024/02/08 08:51:13;;;;;;;32.73;16.00;;;;;;;2.50;100.00;99762.31;6155961;23;20163;-76
2024/02/08 08:53:44;;;;;;;35.53;15.70;;;;;;;2.55;100.00;99762.22;6168141;23;20184;-75
2024/02/08 08:56:11;;;;;;;31.30;14.17;;;;;;;2.59;100.00;99752.75;6167413;23;20187;-75
2024/02/08 08:58:39;;;;;;;32.20;15.30;;;;;;;2.66;100.00;99757.59;6131707;23;20168;-75
2024/02/08 09:01:15;;;;;;;28.20;12.47;;;;;;;2.70;100.00;99755.94;6167139;23;20164;-75
2024/02/08 09:03:43;;;;;;;24.63;11.03;;;;;;;2.74;100.00;99752.44;6167797;23;20542;-75
2024/02/08 09:06:12;;;;;;;27.57;12.17;;;;;;;2.80;100.00;99747.91;6130830;23;20164;-76
2024/02/08 09:08:44;;;;;;;28.10;12.60;;;;;;;2.83;100.00;99744.69;6167659;23;20164;-75
2024/02/08 09:11:12;;;;;;;26.93;11.87;;;;;;;2.87;100.00;99756.84;6167517;23;20170;-74
2024/02/08 09:13:42;;;;;;;24.70;10.17;;;;;;;2.92;100.00;99754.16;6167828;23;20164;-75
2024/02/08 09:16:29;;;;;;;21.07;9.97;;;;;;;2.99;100.00;99761.53;6130557;23;20180;-76
2024/02/08 09:19:12;;;;;;;19.27;10.50;;;;;;;3.07;100.00;99779.84;6166827;23;20168;-75
2024/02/08 09:21:39;;;;;;;23.20;9.40;;;;;;;3.14;100.00;99779.44;6166380;23;20188;-75
2024/02/08 09:24:11;;;;;;;19.23;8.60;;;;;;;3.20;100.00;99781.66;6166601;23;20168;-76
2024/02/08 09:26:49;;;;;;;19.53;9.20;;;;;;;3.26;100.00;99775.25;6167326;23;20210;-74
2024/02/08 09:29:23;;;;;;;19.77;9.40;;;;;;;3.31;100.00;99779.59;6167362;23;20168;-74
2024/02/08 09:31:50;;;;;;;24.37;9.60;;;;;;;3.37;100.00;99776.56;6130320;23;20171;-76
2024/02/08 09:34:18;;;;;;;19.10;8.57;;;;;;;3.44;100.00;99773.53;6131157;23;20176;-76
2024/02/08 09:36:46;;;;;;;19.43;8.73;;;;;;;3.49;100.00;99768.19;6166996;23;20234;-76
2024/02/08 09:39:15;;;;;;;19.23;9.37;;;;;;;3.54;100.00;99765.47;6166718;23;20192;-75
2024/02/08 09:41:44;;;;;;;18.40;9.53;;;;;;;3.59;100.00;99760.13;6165587;23;20175;-76
2024/02/08 09:44:12;;;;;;;20.53;9.70;;;;;;;3.63;100.00;99753.22;6166651;23;20164;-76
2024/02/08 09:46:56;;;;;;;21.90;8.67;;;;;;;3.67;100.00;99754.16;6163108;23;20757;-76
2024/02/08 09:49:34;;;;;;;20.87;8.90;;;;;;;3.75;100.00;99743.00;6130346;23;20166;-76
2024/02/08 09:52:14;;;;;;;18.27;7.37;;;;;;;3.80;100.00;99740.25;6129834;23;20244;-76
2024/02/08 09:54:46;;;;;;;22.63;9.40;;;;;;;3.87;100.00;99737.97;6129936;23;20162;-76
2024/02/08 09:57:21;;;;;;;18.07;8.70;;;;;;;3.90;100.00;99734.78;6129561;23;20280;-76
2024/02/08 10:02:54;;;;;;;20.97;10.43;;;;;;;4.01;100.00;99728.97;6130142;23;20637;-75
2024/02/08 10:05:48;;;;;;;17.00;8.57;;;;;;;4.08;100.00;99731.13;6129393;23;20983;-75
2024/02/08 10:08:27;;;;;;;18.20;9.07;;;;;;;4.13;100.00;99731.78;6129757;23;20274;-75
2024/02/08 10:11:07;;;;;;;16.70;9.90;;;;;;;4.18;100.00;99742.09;6129530;23;20164;-75
2024/02/08 10:13:51;;;;;;;21.73;9.13;;;;;;;4.24;100.00;99747.94;6131338;23;20172;-76
2024/02/08 10:16:29;;;;;;;22.23;9.43;;;;;;;4.30;100.00;99746.75;6128960;23;20191;-75
2024/02/08 10:19:01;;;;;;;22.50;10.30;;;;;;;4.36;100.00;99746.28;6128248;23;20165;-76
2024/02/08 10:21:30;;;;;;;22.37;10.87;;;;;;;4.41;100.00;99746.13;6092391;23;20234;-75
2024/02/08 10:23:59;;;;;;;26.17;9.77;;;;;;;4.48;100.00;99737.84;6128565;23;20272;-74
2024/02/08 10:26:27;;;;;;;20.27;10.63;;;;;;;4.55;100.00;99749.41;6128235;23;20664;-76
2024/02/08 10:28:54;;;;;;;21.83;11.63;;;;;;;4.59;100.00;99739.88;6129584;23;20779;-75
2024/02/08 10:31:25;;;;;;;22.43;10.27;;;;;;;4.64;100.00;99744.16;6093277;23;20169;-75
2024/02/08 10:33:57;;;;;;;24.40;9.67;;;;;;;4.70;100.00;99732.47;6129406;23;20169;-76
2024/02/08 10:36:31;;;;;;;20.47;9.40;;;;;;;4.74;100.00;99734.19;6092606;23;20204;-75
2024/02/08 10:39:07;;;;;;;18.43;8.57;;;;;;;4.79;100.00;99725.41;6129089;23;20260;-75
2024/02/08 10:41:40;;;;;;;15.17;8.93;;;;;;;4.83;100.00;99724.50;6128470;23;20765;-75
2024/02/08 10:44:17;;;;;;;15.93;7.83;;;;;;;4.88;100.00;99718.34;6129440;23;20186;-75
2024/02/08 10:46:46;;;;;;;17.90;8.83;;;;;;;4.93;100.00;99733.91;6129720;23;20271;-76
2024/02/08 10:49:13;;;;;;;17.23;8.63;;;;;;;4.96;100.00;99731.44;6128529;23;20171;-75
2024/02/08 10:51:43;;;;;;;23.77;8.33;;;;;;;5.01;100.00;99723.41;6127391;23;20164;-75
2024/02/08 10:54:15;;;;;;;15.23;7.50;;;;;;;5.05;100.00;99706.03;6128010;23;20513;-76
2024/02/08 10:56:47;;;;;;;14.57;7.93;;;;;;;5.11;100.00;99706.63;6092723;23;20227;-76
2024/02/08 10:59:23;;;;;;;17.77;8.40;;;;;;;5.15;100.00;99692.63;6127026;23;20251;-76
2024/02/08 11:02:01;;;;;;;19.20;8.23;;;;;;;5.19;100.00;99680.44;6092201;23;20173;-76
2024/02/08 11:04:30;;;;;;;26.70;9.67;;;;;;;5.23;100.00;99678.75;6129328;23;20256;-75
2024/02/08 11:07:06;;;;;;;19.80;8.77;;;;;;;5.27;100.00;99671.81;6127374;23;20220;-76
2024/02/08 11:13:29;;;;;;;19.63;7.73;;;;;;;5.36;100.00;99662.09;6126004;23;20148;-75
2024/02/08 11:16:04;;;;;;;13.10;7.10;;;;;;;5.40;100.00;99659.63;6128086;23;20173;-76
2024/02/08 11:18:33;;;;;;;14.50;6.37;;;;;;;5.42;100.00;99667.91;6128402;23;20184;-76
2024/02/08 11:21:03;;;;;;;13.00;6.93;;;;;;;5.46;100.00;99661.75;6091580;23;20177;-75
2024/02/08 11:23:31;;;;;;;13.13;5.20;;;;;;;5.49;100.00;99660.38;6129013;23;20192;-76
2024/02/08 11:26:06;;;;;;;11.53;5.30;;;;;;;5.52;100.00;99655.25;6127742;23;20169;-75
2024/02/08 11:28:44;;;;;;;11.93;5.90;;;;;;;5.55;100.00;99657.25;6128430;23;20165;-76
2024/02/08 11:31:13;;;;;;;9.80;4.57;;;;;;;5.56;100.00;99642.31;6127708;23;20244;-76
2024/02/08 11:33:42;;;;;;;5.80;3.83;;;;;;;5.57;100.00;99631.53;6127942;23;20165;-76
2024/02/08 11:36:12;;;;;;;6.00;3.70;;;;;;;5.57;100.00;99636.75;6127437;23;20568;-75
2024/02/08 11:38:40;;;;;;;7.87;4.20;;;;;;;5.62;100.00;99635.81;6092074;23;20268;-76
2024/02/08 11:41:10;;;;;;;4.67;2.97;;;;;;;5.65;100.00;99635.19;6126070;23;20220;-75
2024/02/08 11:43:46;;;;;;;7.83;3.97;;;;;;;5.66;100.00;99642.75;6126823;23;20161;-75
2024/02/08 11:46:18;;;;;;;6.80;4.30;;;;;;;5.67;100.00;99640.88;6124484;23;20515;-76
2024/02/08 11:48:46;;;;;;;8.93;4.23;;;;;;;5.68;100.00;99637.94;6089916;23;20169;-75
2024/02/08 11:51:15;;;;;;;7.33;3.70;;;;;;;5.70;100.00;99638.38;6087253;23;20185;-76
2024/02/08 11:53:44;;;;;;;7.47;3.80;;;;;;;5.71;100.00;99631.31;6127442;23;20200;-75
2024/02/08 11:56:11;;;;;;;6.50;3.73;;;;;;;5.72;100.00;99633.63;6125573;23;20288;-75
2024/02/08 11:58:42;;;;;;;5.07;3.87;;;;;;;5.74;100.00;99631.44;6126434;23;20187;-75
2024/02/08 12:01:13;;;;;;;5.27;3.80;;;;;;;5.76;100.00;99631.13;6125109;23;20205;-75
2024/02/08 12:03:42;;;;;;;7.43;3.90;;;;;;;5.75;100.00;99630.34;6124918;23;20197;-75
2024/02/08 12:06:21;;;;;;;7.33;3.67;;;;;;;5.73;100.00;99624.66;6089526;23;20177;-76
2024/02/08 12:08:55;;;;;;;10.33;4.20;;;;;;;5.74;100.00;99628.03;6127080;23;20191;-76
2024/02/08 12:11:22;;;;;;;6.33;4.33;;;;;;;5.77;100.00;99633.44;6127183;23;20308;-76
2024/02/08 12:13:52;;;;;;;8.33;3.53;;;;;;;5.77;100.00;99625.59;6127325;23;20518;-75
2024/02/08 12:16:19;;;;;;;5.60;3.57;;;;;;;5.79;100.00;99625.25;6126430;23;20527;-76
2024/02/08 12:18:45;;;;;;;7.60;3.87;;;;;;;5.80;100.00;99624.22;6127738;23;20264;-75
2024/02/08 12:21:17;;;;;;;7.30;3.27;;;;;;;5.82;100.00;99614.16;6126346;23;20166;-76
2024/02/08 12:23:44;;;;;;;9.60;3.90;;;;;;;5.82;100.00;99614.94;6127891;23;20183;-76
2024/02/08 12:26:13;;;;;;;7.50;4.20;;;;;;;5.83;100.00;99613.09;6126634;23;20165;-76
2024/02/08 12:28:42;;;;;;;7.70;3.80;;;;;;;5.85;100.00;99613.56;6127306;23;20161;-75
2024/02/08 12:31:17;;;;;;;6.50;3.87;;;;;;;5.87;100.00;99606.13;6126527;23;20177;-76
2024/02/08 12:33:46;;;;;;;9.43;4.63;;;;;;;5.88;100.00;99597.97;6127302;23;20165;-75
2024/02/08 12:36:13;;;;;;;8.87;4.03;;;;;;;5.91;100.00;99599.94;6126552;23;20248;-76
2024/02/08 12:38:42;;;;;;;7.63;4.20;;;;;;;5.94;100.00;99595.91;6091308;23;20206;-76
2024/02/08 12:41:09;;;;;;;6.10;3.93;;;;;;;5.95;100.00;99598.22;6127174;23;20188;-76
2024/02/08 12:43:37;;;;;;;7.37;3.73;;;;;;;5.99;100.00;99587.84;6091803;23;20182;-76
2024/02/08 12:46:06;;;;;;;7.50;4.10;;;;;;;6.02;100.00;99584.63;6126429;23;20169;-75
2024/02/08 12:48:34;;;;;;;7.50;4.43;;;;;;;6.05;100.00;99581.34;6091727;23;20196;-76
2024/02/08 12:51:03;;;;;;;10.47;4.13;;;;;;;6.07;100.00;99576.56;6127093;23;20169;-76
2024/02/08 12:53:30;;;;;;;6.73;3.90;;;;;;;6.09;100.00;99564.69;6128212;23;20166;-76
2024/02/08 12:56:04;;;;;;;6.93;3.57;;;;;;;6.11;100.00;99559.88;6126472;23;20224;-75
2024/02/08 12:58:31;;;;;;;6.33;4.00;;;;;;;6.13;100.00;99552.47;6127558;23;20682;-76
2024/02/08 13:01:04;;;;;;;5.10;3.03;;;;;;;6.13;100.00;99547.22;6091684;23;20178;-76
2024/02/08 13:03:31;;;;;;;7.57;4.87;;;;;;;6.11;100.00;99543.41;6129030;23;20253;-75
2024/02/08 13:05:59;;;;;;;9.60;5.33;;;;;;;6.11;100.00;99551.25;6128415;23;20172;-77
2024/02/08 13:08:26;;;;;;;4.60;3.17;;;;;;;6.11;100.00;99544.16;6094521;23;20174;-75
2024/02/08 13:10:55;;;;;;;5.67;3.47;;;;;;;6.14;100.00;99548.75;6128060;23;20172;-76
2024/02/08 13:13:23;;;;;;;6.53;3.63;;;;;;;6.13;100.00;99546.44;6127485;23;20221;-76
2024/02/08 13:15:52;;;;;;;6.33;3.47;;;;;;;6.12;100.00;99537.81;6126475;23;20170;-76
2024/02/08 13:18:18;;;;;;;5.77;2.97;;;;;;;6.11;100.00;99530.28;6126817;23;20197;-75
2024/02/08 13:20:45;;;;;;;4.50;2.70;;;;;;;6.08;100.00;99515.97;6128130;23;20172;-75
2024/02/08 13:23:12;;;;;;;6.33;2.90;;;;;;;6.06;100.00;99509.53;6091787;23;20698;-76
2024/02/08 13:25:39;;;;;;;5.57;2.60;;;;;;;6.05;100.00;99508.75;6093077;23;20170;-76
2024/02/08 13:28:09;;;;;;;5.40;3.20;;;;;;;6.02;100.00;99509.38;6128244;23;20185;-76
2024/02/08 13:30:36;;;;;;;4.60;2.90;;;;;;;6.03;100.00;99513.56;6128425;23;20783;-76
2024/02/08 13:33:05;;;;;;;5.37;2.57;;;;;;;6.03;100.00;99516.16;6128599;23;20169;-76
2024/02/08 13:35:39;;;;;;;2.90;2.60;;;;;;;6.02;100.00;99512.00;6126528;23;20264;-76